Capitol Logistics 975

Operating for DHL



LPPD
João Paulo II Airport
Ponta Delgada, PT
LPPT
Aeroporto da Portela de Sacavem
Lisbon, PT

Activity Log

Date Flight Route Aircraft Duration
No Flights Yet

Route Details

Aircraft Information
Group: European Fleet
Types: A30F,A31F,B738
Route Data
Demand: D
Distance: 783nm
Duration: 2h 20m
Recm'd Route: BEKU5Y BEKUN 38N020W KOMUT TABAX BUSEN BUSE4P
Origin Wx: LPPD 272130Z 20008KT 9999 FEW010 18/15 Q1018
Dest. Wx: LPPT 272130Z 29004KT 220V350 CAVOK 24/08 Q1014
Notes:

Financial History
Total Freight: 0lbs
Average Load: 0lbs/flt
Fuel Used: 0lbs
Avg. Fuel Used: 0lbs/flt
Fuel Expense: $0
Avg. Fuel Expense: $0
Avg. Fuel Cost: $0/lbs
Total Gross Income: $0
Pilot Pay: $0
Total Expenses: $0
Total Revenue: $0
Average Revenue: $0